Flight Track Log - Related Links

Times and Time Zones

All times are in EDT time to prevent confusion due to time zone crossing. See the AAL2360 flight status page for this flight to view local times or setup timezone preferences in your user account.

Time Position Orientation Groundspeed Altitude Reporting Facility
EDT Latitude Longitude Course Direction KTS MPH feet Rate Location/Type
Fri 03:44:37 PM 32.9167 -97.0333 North 176 203 1,000  Level Dallas / Fort Worth TRACON
Fri 03:45:07 PM 32.9333 -97.0333 360° North 173 199 2,400 2,270 Climbing Dallas / Fort Worth TRACON
Fri 03:47:00 PM 32.8377 -96.8025 10° North  Level FlightAware Approximate
Fri 03:47:05 PM 33.0436 -97.0292 North 238 274 6,600  Level Fort Worth Center
Fri 03:48:00 PM 32.9517 -96.8000 North  Level FlightAware Approximate
Fri 03:48:05 PM 33.1167 -97.0067 14° North 238 274 9,500  Level Fort Worth Center
Fri 03:49:00 PM 33.0659 -96.8000 North  Level FlightAware Approximate
Fri 03:49:05 PM 33.1811 -96.9717 24° Northeast 258 297 11,100  Level Fort Worth Center
Fri 03:50:05 PM 33.2769 -96.9214 24° Northeast 315 362 13,100 2,200 Climbing Fort Worth Center
Fri 03:51:05 PM 33.3708 -96.8711 24° Northeast 349 402 15,500 2,500 Climbing Fort Worth Center
Fri 03:52:05 PM 33.4664 -96.8158 26° Northeast 368 423 18,100 2,150 Climbing Fort Worth Center
Fri 03:53:05 PM 33.5622 -96.7553 28° Northeast 378 435 19,800 1,850 Climbing Fort Worth Center
Fri 03:54:05 PM 33.6619 -96.6922 28° Northeast 392 451 21,800 1,850 Climbing Fort Worth Center
Fri 03:55:05 PM 33.7639 -96.6239 29° Northeast 404 465 23,500 1,600 Climbing Fort Worth Center
Fri 03:56:05 PM 33.8594 -96.5631 28° Northeast 412 474 25,000 1,550 Climbing Fort Worth Center
Fri 03:57:05 PM 33.9675 -96.4944 28° Northeast 417 480 26,600 1,500 Climbing Fort Worth Center
Fri 03:58:05 PM 34.0714 -96.4231 30° Northeast 422 486 28,000 1,400 Climbing Fort Worth Center
Fri 03:59:05 PM 34.1792 -96.3339 34° Northeast 422 486 29,400 1,550 Climbing Fort Worth Center
Fri 04:00:05 PM 34.2847 -96.2497 33° Northeast 434 499 31,100 1,400 Climbing Fort Worth Center
Fri 04:01:05 PM 34.3861 -96.1628 35° Northeast 440 506 32,200 950 Climbing Fort Worth Center
Fri 04:02:05 PM 34.4875 -96.0808 34° Northeast 440 506 33,000 400 Climbing Fort Worth Center
Fri 04:03:05 PM 34.5931 -95.9958 34° Northeast 440 506 33,000  Level Fort Worth Center
Fri 04:04:05 PM 34.6964 -95.9108 34° Northeast 446 513 33,000  Level Fort Worth Center
Fri 04:05:05 PM 34.7997 -95.8231 35° Northeast 451 519 33,000  Level Fort Worth Center
Fri 04:06:05 PM 34.8944 -95.7403 36° Northeast 458 527 33,000  Level Fort Worth Center
Fri 04:07:05 PM 34.9956 -95.6494 36° Northeast 458 527 33,000  Level Fort Worth Center
Fri 04:08:05 PM 35.0922 -95.5511 40° Northeast 453 521 33,000  Level Fort Worth Center
Fri 04:09:05 PM 35.1908 -95.4625 36° Northeast 448 516 33,000  Level Fort Worth Center
Fri 04:10:05 PM 35.2978 -95.3608 38° Northeast 443 510 33,000  Level Fort Worth Center
Fri 04:10:20 PM 35.3142 -95.3494 30° Northeast 436 502 33,000  Level Memphis Center
Fri 04:11:20 PM 35.4097 -95.2558 39° Northeast 431 496 33,000  Level Memphis Center
Fri 04:12:20 PM 35.5072 -95.1619 38° Northeast 431 496 33,000  Level Memphis Center
Fri 04:13:20 PM 35.6025 -95.0706 38° Northeast 431 496 33,000  Level Memphis Center
Fri 04:14:00 PM 35.6775 -94.9956 39° Northeast 438 504 33,000  Level Kansas City Center
Fri 04:15:02 PM 35.7750 -94.9028 38° Northeast 442 509 33,000  Level Kansas City Center
Fri 04:16:04 PM 35.8603 -94.7936 46° Northeast 447 514 33,000  Level Kansas City Center
Fri 04:16:20 PM 35.8806 -94.7686 45° Northeast 442 509 33,000  Level Memphis Center
Fri 04:17:20 PM 35.9636 -94.6578 47° Northeast 442 509 33,000  Level Memphis Center
Fri 04:18:20 PM 36.0467 -94.5467 47° Northeast 442 509 33,000 -50 Level Memphis Center
Fri 04:19:20 PM 36.1336 -94.4353 46° Northeast 442 509 32,900  Descending Memphis Center
Fri 04:20:12 PM 36.2283 -94.3547 34° Northeast 437 503 33,000 53 Climbing Kansas City Center
Fri 04:21:14 PM 36.3272 -94.2672 35° Northeast 438 504 33,000  Level Kansas City Center
Fri 04:22:17 PM 36.4239 -94.1797 36° Northeast 433 498 33,000  Level Kansas City Center
Fri 04:23:19 PM 36.5236 -94.0906 36° Northeast 438 504 33,000  Level Kansas City Center
Fri 04:24:21 PM 36.6214 -94.0031 36° Northeast 435 501 33,000  Level Kansas City Center
Fri 04:25:23 PM 36.7203 -93.9144 36° Northeast 437 503 33,000  Level Kansas City Center
Fri 04:26:25 PM 36.8397 -93.8081 35° Northeast 439 505 33,000  Level Kansas City Center
Fri 04:27:27 PM 36.9322 -93.7211 37° Northeast 433 498 33,000  Level Kansas City Center
Fri 04:28:29 PM 37.0317 -93.6308 36° Northeast 437 503 33,000  Level Kansas City Center
Fri 04:29:31 PM 37.1311 -93.5394 36° Northeast 441 507 33,000  Level Kansas City Center
Fri 04:30:33 PM 37.2314 -93.4489 36° Northeast 442 509 33,000  Level Kansas City Center
Fri 04:32:00 PM 37.3638 -93.3204 37° Northeast  Level FlightAware Approximate
Fri 04:32:37 PM 37.4514 -93.2483 37° Northeast 442 509 33,000  Level Kansas City Center
Fri 04:33:39 PM 37.5506 -93.1556 37° Northeast 441 507 33,000  Level Kansas City Center
Fri 04:34:41 PM 37.6531 -93.0617 36° Northeast 448 516 33,000  Level Kansas City Center
Fri 04:35:43 PM 37.7528 -92.9672 37° Northeast 447 514 33,000  Level Kansas City Center
Fri 04:36:45 PM 37.8539 -92.8733 36° Northeast 447 514 33,000  Level Kansas City Center
Fri 04:37:47 PM 37.9558 -92.7786 36° Northeast 449 517 33,000  Level Kansas City Center
Fri 04:38:49 PM 38.0628 -92.6781 37° Northeast 449 517 33,000  Level Kansas City Center
Fri 04:39:51 PM 38.1639 -92.5828 37° Northeast 452 520 33,000  Level Kansas City Center
Fri 04:40:53 PM 38.2828 -92.4700 37° Northeast 450 518 33,000  Level Kansas City Center
Fri 04:41:55 PM 38.3831 -92.3750 37° Northeast 447 514 33,000  Level Kansas City Center
Fri 04:42:57 PM 38.4836 -92.2786 37° Northeast 447 514 33,000  Level Kansas City Center
Fri 04:43:59 PM 38.5850 -92.1806 37° Northeast 450 518 33,000  Level Kansas City Center
Fri 04:45:01 PM 38.6867 -92.0836 37° Northeast 452 520 33,000  Level Kansas City Center
Fri 04:46:03 PM 38.7881 -91.9856 37° Northeast 454 522 33,000  Level Kansas City Center
Fri 04:47:05 PM 38.8892 -91.8872 37° Northeast 454 522 33,000  Level Kansas City Center
Fri 04:48:07 PM 39.0106 -91.7700 37° Northeast 455 524 33,000  Level Kansas City Center
Fri 04:49:10 PM 39.1069 -91.6775 37° Northeast 449 517 33,000  Level Kansas City Center
Fri 04:50:12 PM 39.2050 -91.5797 38° Northeast 446 513 33,000  Level Kansas City Center
Fri 04:51:14 PM 39.3025 -91.4847 37° Northeast 442 509 33,000  Level Kansas City Center
Fri 04:52:16 PM 39.4000 -91.3894 37° Northeast 440 506 33,000  Level Kansas City Center
Fri 04:53:18 PM 39.4997 -91.2908 37° Northeast 444 511 33,000  Level Kansas City Center
Fri 04:54:20 PM 39.6017 -91.1883 38° Northeast 454 522 33,000  Level Kansas City Center
Fri 04:55:22 PM 39.7256 -91.0644 38° Northeast 463 533 33,000  Level Kansas City Center
Fri 04:56:24 PM 39.8244 -90.9647 38° Northeast 463 533 33,000  Level Kansas City Center
Fri 04:57:26 PM 39.9281 -90.8622 37° Northeast 466 536 33,000  Level Kansas City Center
Fri 04:58:28 PM 40.0297 -90.7589 38° Northeast 464 534 33,000  Level Kansas City Center
Fri 04:59:30 PM 40.1317 -90.6556 38° Northeast 464 534 33,000  Level Kansas City Center
Fri 05:00:32 PM 40.2372 -90.5500 37° Northeast 471 542 33,000  Level Kansas City Center
Fri 05:01:34 PM 40.3614 -90.4197 39° Northeast 474 545 33,000  Level Kansas City Center
Fri 05:02:18 PM 40.4253 -90.3558 37° Northeast 476 548 33,000 -566 Level Chicago Center
Fri 05:03:20 PM 40.5356 -90.2408 38° Northeast 479 551 32,000 -1,065 Descending Chicago Center
Fri 05:04:22 PM 40.6408 -90.1403 36° Northeast 468 539 30,800 -1,306 Descending Chicago Center
Fri 05:05:24 PM 40.7903 -90.1311 North 443 510 29,300 -1,258 Descending Chicago Center
Fri 05:06:26 PM 40.8892 -90.0517 31° Northeast 451 519 28,200 -1,258 Descending Chicago Center
Fri 05:07:28 PM 40.9667 -89.9233 51° Northeast 446 513 26,700 -1,403 Descending Chicago Center
Fri 05:08:30 PM 41.0428 -89.7925 52° Northeast 434 499 25,300 -1,296 Descending Chicago Center
Fri 05:09:33 PM 41.1150 -89.6678 52° Northeast 426 490 24,000 -1,344 Descending Chicago Center
Fri 05:10:35 PM 41.1814 -89.5414 55° Northeast 418 481 22,500 -1,645 Descending Chicago Center
Fri 05:11:37 PM 41.2328 -89.4078 63° Northeast 406 467 20,600 -1,935 Descending Chicago Center
Fri 05:12:39 PM 41.2853 -89.2800 61° Northeast 395 455 18,500 -2,081 Descending Chicago Center
Fri 05:13:41 PM 41.3397 -89.1425 62° Northeast 380 437 16,300 -1,839 Descending Chicago Center
Fri 05:14:43 PM 41.3872 -89.0239 62° Northeast 366 421 14,700 -1,742 Descending Chicago Center
Fri 05:15:45 PM 41.4411 -88.8864 62° Northeast 351 404 12,700 -1,306 Descending Chicago Center
Fri 05:16:47 PM 41.5028 -88.8194 39° Northeast 307 353 12,000 -387 Descending Chicago Center
Fri 05:17:49 PM 41.5714 -88.7731 27° Northeast 299 344 11,900 -484 Descending Chicago Center
Fri 05:18:51 PM 41.6186 -88.6792 56° Northeast 302 348 11,000 -435 Descending Chicago Center
Fri 05:19:53 PM 41.6633 -88.5822 58° Northeast 304 350 11,000 -288 Level Chicago Center
Fri 05:20:56 PM 41.7089 -88.4897 57° Northeast 300 345 10,400 -1,200 Descending Chicago Center
Fri 05:21:58 PM 41.7606 -88.3822 57° Northeast 287 330 8,500 -1,161 Descending Chicago Center
Fri 05:23:00 PM 41.8156 -88.3208 40° Northeast 274 315 8,000 -242 Descending Chicago Center
Fri 05:24:02 PM 41.8658 -88.3428 342° North 204 235 8,000 -242 Level Chicago Center
Fri 05:25:04 PM 41.9050 -88.3750 329° Northwest 190 219 7,500 -823 Descending Chicago Center
Fri 05:26:06 PM 41.9439 -88.3469 28° Northeast 201 231 6,300 -1,161 Descending Chicago Center
Fri 05:27:08 PM 41.9606 -88.2878 69° East 172 198 5,100 -726 Descending Chicago Center
Fri 05:28:10 PM 41.9675 -88.2100 83° East 178 205 4,800 -532 Descending Chicago Center
Fri 05:29:12 PM 41.9681 -88.1486 89° East 169 194 4,000 -774 Descending Chicago Center

Login

Don't have an account? Register now (free) for customized features, flight alerts, and more!